createdAt,value
2019-03-19T00:00:40.067Z,3.70
2019-03-19T00:03:09.220Z,3.70
2019-03-19T00:05:38.382Z,3.70
2019-03-19T00:08:07.584Z,3.70
2019-03-19T00:10:36.707Z,3.60
2019-03-19T00:13:05.954Z,3.50
2019-03-19T00:15:35.163Z,3.50
2019-03-19T00:18:04.305Z,3.30
2019-03-19T00:20:33.384Z,3.30
2019-03-19T00:23:02.531Z,3.40
2019-03-19T00:25:31.659Z,3.40
2019-03-19T00:28:00.913Z,3.50
2019-03-19T00:30:30.166Z,3.50
2019-03-19T00:32:59.468Z,3.50
2019-03-19T00:35:28.578Z,3.50
2019-03-19T00:37:57.790Z,3.40
2019-03-19T00:40:26.946Z,3.30
2019-03-19T00:42:56.128Z,3.20
2019-03-19T00:45:25.490Z,3.10
2019-03-19T00:47:54.628Z,3.20
2019-03-19T00:50:23.833Z,3.10
2019-03-19T00:52:53.001Z,3.00
2019-03-19T00:55:22.126Z,2.90
2019-03-19T01:00:50.767Z,2.90
2019-03-19T01:03:20.018Z,3.00
2019-03-19T01:05:49.138Z,3.10
2019-03-19T01:08:18.320Z,3.10
2019-03-19T01:10:47.552Z,3.10
2019-03-19T01:13:16.752Z,3.00
2019-03-19T01:15:45.958Z,2.90
2019-03-19T01:18:15.100Z,2.80
2019-03-19T01:20:44.324Z,2.80
2019-03-19T01:23:13.506Z,2.70
2019-03-19T01:25:54.694Z,2.70
2019-03-19T01:28:13.547Z,2.50
2019-03-19T01:30:42.673Z,2.20
2019-03-19T01:33:11.850Z,2.00
2019-03-19T01:35:41.067Z,2.00
2019-03-19T01:38:10.203Z,1.90
2019-03-19T01:40:39.344Z,1.90
2019-03-19T01:43:08.465Z,2.00
2019-03-19T01:45:37.617Z,2.10
2019-03-19T01:48:06.785Z,2.20
2019-03-19T01:50:35.975Z,2.10
2019-03-19T01:53:05.263Z,2.00
2019-03-19T01:55:34.413Z,1.80
2019-03-19T01:58:03.610Z,1.70
2019-03-19T02:00:32.774Z,1.70
2019-03-19T02:03:01.992Z,1.60
2019-03-19T02:05:31.204Z,1.50
2019-03-19T02:08:00.429Z,1.40
2019-03-19T02:10:29.652Z,1.40
2019-03-19T02:13:07.357Z,1.50
2019-03-19T02:15:36.545Z,1.60
2019-03-19T02:18:05.723Z,1.60
2019-03-19T02:20:35.339Z,1.60
2019-03-19T02:23:04.835Z,1.60
2019-03-19T02:25:34.077Z,1.50
2019-03-19T02:28:03.283Z,1.60
2019-03-19T02:30:32.439Z,1.50
2019-03-19T02:33:01.697Z,1.60
2019-03-19T02:35:30.872Z,1.60
2019-03-19T02:38:00.078Z,1.70
2019-03-19T02:40:29.253Z,1.80
2019-03-19T02:42:58.930Z,1.80
2019-03-19T02:45:28.137Z,1.80
2019-03-19T02:47:57.190Z,1.80
2019-03-19T02:50:26.504Z,1.80
2019-03-19T02:52:55.689Z,1.80
2019-03-19T02:55:24.932Z,1.70
2019-03-19T02:57:54.075Z,1.80
2019-03-19T03:00:23.323Z,1.90
2019-03-19T03:02:52.605Z,1.90
2019-03-19T03:05:22.090Z,2.00
2019-03-19T03:07:51.236Z,2.00
2019-03-19T03:10:20.441Z,1.90
2019-03-19T03:12:49.679Z,1.80
2019-03-19T03:15:18.861Z,1.70
2019-03-19T03:17:48.131Z,1.70
2019-03-19T03:20:17.619Z,1.70
2019-03-19T03:22:46.918Z,1.80
2019-03-19T03:25:16.140Z,1.70
2019-03-19T03:27:45.399Z,1.60
2019-03-19T03:30:15.011Z,1.60
2019-03-19T03:32:44.183Z,1.60
2019-03-19T03:35:13.525Z,1.70
2019-03-19T03:37:42.699Z,1.70
2019-03-19T03:40:12.806Z,1.80
2019-03-19T03:42:43.168Z,1.80
2019-03-19T03:45:13.013Z,1.80
2019-03-19T03:47:42.211Z,1.80
2019-03-19T03:50:11.378Z,1.60
2019-03-19T03:52:40.541Z,1.40
2019-03-19T03:55:09.939Z,1.20
2019-03-19T03:57:39.239Z,1.10
2019-03-19T04:00:11.001Z,1.10
2019-03-19T04:02:40.232Z,1.20
2019-03-19T04:05:09.516Z,1.20
2019-03-19T04:07:38.882Z,1.20
2019-03-19T04:10:09.444Z,1.20
2019-03-19T04:12:38.749Z,1.10
2019-03-19T04:15:09.121Z,1.10
2019-03-19T04:17:38.281Z,1.10
2019-03-19T04:20:07.624Z,1.10
2019-03-19T04:22:36.901Z,1.00
2019-03-19T04:25:06.967Z,0.90
2019-03-19T04:27:36.123Z,0.90
2019-03-19T04:30:06.689Z,0.80
2019-03-19T04:32:35.895Z,0.70
2019-03-19T04:35:06.156Z,0.70
2019-03-19T04:37:35.333Z,0.70
2019-03-19T04:40:05.173Z,0.80
2019-03-19T04:42:34.319Z,0.80
2019-03-19T04:45:03.729Z,0.90
2019-03-19T04:47:32.935Z,0.90
2019-03-19T04:50:02.158Z,0.80
2019-03-19T04:52:31.259Z,0.80
2019-03-19T04:55:02.085Z,0.70
2019-03-19T04:57:31.393Z,0.60
2019-03-19T05:00:00.669Z,0.60
2019-03-19T05:02:29.878Z,0.70
2019-03-19T05:04:59.249Z,0.70
2019-03-19T05:07:28.399Z,0.70
2019-03-19T05:09:57.590Z,0.80
2019-03-19T05:12:26.831Z,0.80
2019-03-19T05:14:57.533Z,0.80
2019-03-19T05:17:26.744Z,0.80
2019-03-19T05:19:55.993Z,0.80
2019-03-19T05:22:25.203Z,1.00
2019-03-19T05:24:54.371Z,0.90
2019-03-19T05:27:23.515Z,1.00
2019-03-19T05:29:52.657Z,0.80
2019-03-19T05:32:21.813Z,0.80
2019-03-19T05:34:50.949Z,0.80
2019-03-19T05:37:20.105Z,0.90
2019-03-19T05:39:49.345Z,1.00
2019-03-19T05:42:18.463Z,1.10
2019-03-19T05:44:47.650Z,1.20
2019-03-19T05:47:16.920Z,1.40
2019-03-19T05:49:46.157Z,1.50
2019-03-19T05:52:15.365Z,1.60
2019-03-19T05:54:44.573Z,1.60
2019-03-19T05:57:13.764Z,1.60
2019-03-19T05:59:42.976Z,1.80
2019-03-19T06:02:12.212Z,2.00
2019-03-19T06:04:41.429Z,2.30
2019-03-19T06:07:10.680Z,2.60
2019-03-19T06:09:39.944Z,2.70
2019-03-19T06:12:09.161Z,3.00
2019-03-19T06:14:38.426Z,3.10
2019-03-19T06:17:07.592Z,3.40
2019-03-19T06:19:39.200Z,3.40
2019-03-19T06:22:08.512Z,3.30
2019-03-19T06:24:37.716Z,3.40
2019-03-19T06:27:06.852Z,3.50
2019-03-19T06:29:36.047Z,3.60
2019-03-19T06:32:05.220Z,4.00
2019-03-19T06:34:34.412Z,4.50
2019-03-19T06:37:03.745Z,4.70
2019-03-19T06:39:32.898Z,4.80
2019-03-19T06:42:02.315Z,4.90
2019-03-19T06:44:31.515Z,5.30
2019-03-19T06:47:00.795Z,5.80
2019-03-19T06:49:30.031Z,6.60
2019-03-19T06:51:59.352Z,7.30
2019-03-19T06:54:28.581Z,7.90
2019-03-19T06:56:57.827Z,8.30
2019-03-19T06:59:27.159Z,8.90
2019-03-19T07:01:56.318Z,9.10
2019-03-19T07:04:25.608Z,9.60
2019-03-19T07:06:54.867Z,9.60
2019-03-19T07:09:27.161Z,9.50
2019-03-19T07:11:56.340Z,9.40
2019-03-19T07:14:25.623Z,9.70
2019-03-19T07:16:54.877Z,9.80
2019-03-19T07:19:24.163Z,9.80
2019-03-19T07:21:53.433Z,10.30
2019-03-19T07:24:22.704Z,10.40
2019-03-19T07:26:51.971Z,10.60
2019-03-19T07:29:21.255Z,10.70
2019-03-19T07:31:50.482Z,11.10
2019-03-19T07:34:19.677Z,11.10
2019-03-19T07:36:49.125Z,11.10
2019-03-19T07:39:18.370Z,11.40
2019-03-19T07:41:47.600Z,11.30
2019-03-19T07:44:16.765Z,11.60
2019-03-19T07:46:46.177Z,11.50
2019-03-19T07:49:15.495Z,11.60
2019-03-19T07:51:44.715Z,11.60
2019-03-19T07:54:13.966Z,11.70
2019-03-19T07:56:43.217Z,11.70
2019-03-19T07:59:12.548Z,12.00
2019-03-19T08:01:41.808Z,12.00
2019-03-19T08:04:11.795Z,12.40
2019-03-19T08:06:40.968Z,12.90
2019-03-19T08:09:10.280Z,13.40
2019-03-19T08:11:39.536Z,13.30
2019-03-19T08:14:08.761Z,13.70
2019-03-19T08:16:38.004Z,13.90
2019-03-19T08:19:07.263Z,13.80
2019-03-19T08:21:36.493Z,14.00
2019-03-19T08:24:05.719Z,14.20
2019-03-19T08:26:34.890Z,14.50
2019-03-19T08:29:04.160Z,14.10
2019-03-19T08:31:33.422Z,14.30
2019-03-19T08:34:02.779Z,14.60
2019-03-19T08:36:31.954Z,15.00
2019-03-19T08:39:01.201Z,15.40
2019-03-19T08:41:30.605Z,15.40
2019-03-19T08:43:59.953Z,15.40
2019-03-19T08:46:29.539Z,15.60
2019-03-19T08:49:01.069Z,15.70
2019-03-19T08:51:30.342Z,16.20
2019-03-19T08:53:59.623Z,16.60
2019-03-19T08:56:29.003Z,16.70
2019-03-19T08:59:05.526Z,16.90
2019-03-19T09:01:29.273Z,16.90
2019-03-19T09:03:58.567Z,17.10
2019-03-19T09:06:27.757Z,17.00
2019-03-19T09:08:56.951Z,17.40
2019-03-19T09:11:26.124Z,17.30
2019-03-19T09:13:55.289Z,17.50
2019-03-19T09:16:24.567Z,17.60
2019-03-19T09:18:53.714Z,17.80
2019-03-19T09:21:22.927Z,17.70
2019-03-19T09:23:52.120Z,18.30
2019-03-19T09:26:21.271Z,18.50
2019-03-19T09:28:50.415Z,18.90
2019-03-19T09:31:19.794Z,19.10
2019-03-19T09:33:50.694Z,19.20
2019-03-19T09:36:20.348Z,19.10
2019-03-19T09:38:49.544Z,19.90
2019-03-19T09:41:20.983Z,20.30
2019-03-19T09:43:50.209Z,21.00
2019-03-19T09:46:19.491Z,20.90
2019-03-19T09:48:48.808Z,20.90
2019-03-19T09:51:18.082Z,21.00
2019-03-19T09:53:47.311Z,20.40
2019-03-19T09:56:17.080Z,20.20
2019-03-19T09:58:46.275Z,20.20
2019-03-19T10:01:15.603Z,20.30
2019-03-19T10:03:44.982Z,20.30
2019-03-19T10:06:15.218Z,19.70
2019-03-19T10:08:44.498Z,19.60
2019-03-19T10:11:13.758Z,19.50
2019-03-19T10:13:44.332Z,20.10
2019-03-19T10:16:13.675Z,19.90
2019-03-19T10:18:42.877Z,20.20
2019-03-19T10:21:12.218Z,20.10
2019-03-19T10:23:41.744Z,19.60
2019-03-19T10:26:11.931Z,19.50
2019-03-19T10:28:41.516Z,19.90
2019-03-19T10:31:23.129Z,19.80
2019-03-19T10:33:52.472Z,20.00
2019-03-19T10:36:21.860Z,19.80
2019-03-19T10:38:51.126Z,18.70
2019-03-19T10:41:20.416Z,17.80
2019-03-19T10:43:50.030Z,17.50
2019-03-19T10:46:19.193Z,17.30
2019-03-19T10:48:48.650Z,17.40
2019-03-19T10:51:17.775Z,17.90
2019-03-19T10:53:46.906Z,18.00
2019-03-19T10:56:16.153Z,17.80
2019-03-19T10:58:45.458Z,18.00
2019-03-19T11:01:14.806Z,18.00
2019-03-19T11:03:45.837Z,18.20
2019-03-19T11:06:15.223Z,18.00
2019-03-19T11:08:44.409Z,18.30
2019-03-19T11:11:13.625Z,18.40
2019-03-19T11:13:42.855Z,18.20
2019-03-19T11:16:12.077Z,18.30
2019-03-19T11:18:41.367Z,18.20
2019-03-19T11:21:10.695Z,17.90
2019-03-19T11:23:40.100Z,17.70
2019-03-19T11:26:09.382Z,17.50
2019-03-19T11:28:38.682Z,17.10
2019-03-19T11:31:07.870Z,16.60
2019-03-19T11:33:37.118Z,16.20
2019-03-19T11:36:06.635Z,16.40
2019-03-19T11:38:35.822Z,16.70
2019-03-19T11:41:07.170Z,17.00
2019-03-19T11:43:36.347Z,17.30
2019-03-19T11:46:06.394Z,17.30
2019-03-19T11:48:35.661Z,16.90
2019-03-19T11:51:05.515Z,16.60
2019-03-19T11:53:34.855Z,16.40
2019-03-19T11:56:04.303Z,16.30
2019-03-19T11:58:33.461Z,16.30
2019-03-19T12:01:03.037Z,16.10
2019-03-19T12:03:32.362Z,16.00
2019-03-19T12:06:01.611Z,15.50
2019-03-19T12:08:33.698Z,15.40
2019-03-19T12:11:03.223Z,15.40
2019-03-19T12:13:32.464Z,14.90
2019-03-19T12:16:02.660Z,14.50
2019-03-19T12:18:32.040Z,14.20
2019-03-19T12:21:01.296Z,13.90
2019-03-19T12:23:30.735Z,13.70
2019-03-19T12:25:59.991Z,13.90
2019-03-19T12:28:39.201Z,13.90
2019-03-19T12:31:00.342Z,14.20
2019-03-19T12:33:40.123Z,14.30
2019-03-19T12:36:00.587Z,14.30
2019-03-19T12:38:30.194Z,14.30
2019-03-19T12:40:59.468Z,14.40
2019-03-19T12:43:28.714Z,14.50
2019-03-19T12:45:58.062Z,14.40
2019-03-19T12:48:27.724Z,14.40
2019-03-19T12:50:57.256Z,14.50
2019-03-19T12:53:26.490Z,14.30
2019-03-19T12:55:55.672Z,14.20
2019-03-19T12:58:24.871Z,14.00
2019-03-19T13:00:54.130Z,13.80
2019-03-19T13:03:23.315Z,14.10
2019-03-19T13:05:52.584Z,13.90
2019-03-19T13:08:21.800Z,13.50
2019-03-19T13:10:50.982Z,13.50
2019-03-19T13:13:20.215Z,13.60
2019-03-19T13:15:49.584Z,13.80
2019-03-19T13:18:18.910Z,13.90
2019-03-19T13:20:48.130Z,13.90
2019-03-19T13:23:17.446Z,13.90
2019-03-19T13:25:46.806Z,13.60
2019-03-19T13:28:16.070Z,13.50
2019-03-19T13:30:45.639Z,13.70
2019-03-19T13:33:15.021Z,13.70
2019-03-19T13:35:44.185Z,14.00
2019-03-19T13:38:13.369Z,14.10
2019-03-19T13:40:42.737Z,14.20
2019-03-19T13:43:13.509Z,14.00
2019-03-19T13:45:42.751Z,13.90
2019-03-19T13:48:12.068Z,14.00
2019-03-19T13:50:41.436Z,13.80
2019-03-19T13:53:10.748Z,13.80
2019-03-19T13:55:40.043Z,13.40
2019-03-19T13:58:09.286Z,13.40
2019-03-19T14:00:38.584Z,13.00
2019-03-19T14:03:07.797Z,13.20
2019-03-19T14:05:37.002Z,13.00
2019-03-19T14:08:06.400Z,13.20
2019-03-19T14:10:35.659Z,13.10
2019-03-19T14:13:05.004Z,13.10
2019-03-19T14:15:34.945Z,13.30
2019-03-19T14:18:04.470Z,13.50
2019-03-19T14:20:33.637Z,13.00
2019-03-19T14:23:03.009Z,13.00
2019-03-19T14:25:32.318Z,13.20
2019-03-19T14:28:01.717Z,13.20
2019-03-19T14:30:33.230Z,13.30
2019-03-19T14:33:02.844Z,13.30
2019-03-19T14:35:37.540Z,13.30
2019-03-19T14:38:06.990Z,13.20
2019-03-19T14:40:37.078Z,13.20
2019-03-19T14:43:06.877Z,13.10
2019-03-19T14:45:36.613Z,13.00
2019-03-19T14:48:06.324Z,13.00
2019-03-19T14:50:35.677Z,13.10
2019-03-19T14:53:28.415Z,13.30
2019-03-19T14:56:01.522Z,13.30
2019-03-19T14:58:38.833Z,13.50
2019-03-19T15:01:18.753Z,13.70
2019-03-19T15:03:40.255Z,13.60
2019-03-19T15:06:11.906Z,13.70
2019-03-19T15:08:41.115Z,13.70
2019-03-19T15:11:10.440Z,13.80
2019-03-19T15:13:39.716Z,13.90
2019-03-19T15:16:09.178Z,13.90
2019-03-19T15:18:42.219Z,14.00
2019-03-19T15:21:11.651Z,14.10
2019-03-19T15:23:40.805Z,14.10
2019-03-19T15:26:10.106Z,14.20
2019-03-19T15:28:39.701Z,14.20
2019-03-19T15:31:08.891Z,14.10
2019-03-19T15:33:38.602Z,13.90
2019-03-19T15:36:07.781Z,13.70
2019-03-19T15:38:36.911Z,13.30
2019-03-19T15:41:06.081Z,12.90
2019-03-19T15:43:35.199Z,12.60
2019-03-19T15:46:04.306Z,12.20
2019-03-19T15:48:33.744Z,12.00
2019-03-19T15:51:03.009Z,11.90
2019-03-19T15:53:32.315Z,11.80
2019-03-19T15:56:01.581Z,11.60
2019-03-19T15:58:30.813Z,11.50
2019-03-19T16:01:00.061Z,11.40
2019-03-19T16:03:29.403Z,11.30
2019-03-19T16:05:58.660Z,11.20
2019-03-19T16:08:28.023Z,11.10
2019-03-19T16:10:57.394Z,11.00
2019-03-19T16:13:26.593Z,10.90
2019-03-19T16:15:55.818Z,10.90
2019-03-19T16:18:25.137Z,10.80
2019-03-19T16:20:54.378Z,10.70
2019-03-19T16:23:23.551Z,10.70
2019-03-19T16:25:52.747Z,10.60
2019-03-19T16:28:22.006Z,10.50
2019-03-19T16:30:51.153Z,10.50
2019-03-19T16:33:20.366Z,10.50
2019-03-19T16:35:49.673Z,10.50
2019-03-19T16:38:18.851Z,10.50
2019-03-19T16:40:48.126Z,10.40
2019-03-19T16:43:17.377Z,10.40
2019-03-19T16:45:46.591Z,10.40
2019-03-19T16:48:15.790Z,10.40
2019-03-19T16:50:45.289Z,10.40
2019-03-19T16:53:14.469Z,10.30
2019-03-19T16:55:43.683Z,10.20
2019-03-19T16:58:12.849Z,10.30
2019-03-19T17:00:42.208Z,10.20
2019-03-19T17:03:11.503Z,10.20
2019-03-19T17:05:40.690Z,10.20
2019-03-19T17:08:09.918Z,10.20
2019-03-19T17:10:39.240Z,10.20
2019-03-19T17:13:09.557Z,10.10
2019-03-19T17:15:39.544Z,10.00
2019-03-19T17:18:30.350Z,10.00
2019-03-19T17:20:59.593Z,10.00
2019-03-19T17:23:28.750Z,9.90
2019-03-19T17:25:59.515Z,9.90
2019-03-19T17:28:30.431Z,9.80
2019-03-19T17:30:59.935Z,10.20
2019-03-19T17:33:29.890Z,10.70
2019-03-19T17:35:59.145Z,10.90
2019-03-19T17:38:31.524Z,10.80
2019-03-19T17:41:00.857Z,10.60
2019-03-19T17:43:32.777Z,10.40
2019-03-19T17:46:05.098Z,10.20
2019-03-19T17:48:34.391Z,10.10
2019-03-19T17:51:06.034Z,9.90
2019-03-19T17:53:35.303Z,9.80
2019-03-19T17:56:04.739Z,9.80
2019-03-19T17:58:35.686Z,9.70
2019-03-19T18:04:01.082Z,9.50
2019-03-19T18:06:30.342Z,9.40
2019-03-19T18:09:02.138Z,9.40
2019-03-19T18:11:32.429Z,9.30
2019-03-19T18:14:01.680Z,9.30
2019-03-19T18:16:32.642Z,9.30
2019-03-19T18:19:04.791Z,9.20
2019-03-19T18:21:34.726Z,9.20
2019-03-19T18:24:04.106Z,9.20
2019-03-19T18:26:33.850Z,9.10
2019-03-19T18:29:03.080Z,9.10
2019-03-19T18:31:32.258Z,9.30
2019-03-19T18:34:09.972Z,9.30
2019-03-19T18:36:32.700Z,9.10
2019-03-19T18:39:02.237Z,9.00
2019-03-19T18:41:31.528Z,8.80
2019-03-19T18:44:01.973Z,8.70
2019-03-19T18:46:31.687Z,8.70
2019-03-19T18:49:01.405Z,8.70
2019-03-19T18:51:30.576Z,8.60
2019-03-19T18:53:59.932Z,8.60
2019-03-19T18:56:29.177Z,8.50
2019-03-19T18:58:58.444Z,8.50
2019-03-19T19:01:28.120Z,8.40
2019-03-19T19:04:04.653Z,8.40
2019-03-19T19:06:33.855Z,8.40
2019-03-19T19:09:03.868Z,8.30
2019-03-19T19:11:33.194Z,8.30
2019-03-19T19:14:02.536Z,8.30
2019-03-19T19:16:31.837Z,8.30
2019-03-19T19:19:01.637Z,8.10
2019-03-19T19:21:31.690Z,8.00
2019-03-19T19:24:01.806Z,8.00
2019-03-19T19:26:31.330Z,8.00
2019-03-19T19:29:00.590Z,8.00
2019-03-19T19:31:29.886Z,8.00
2019-03-19T19:33:59.182Z,8.00
2019-03-19T19:36:28.920Z,8.00
2019-03-19T19:39:01.393Z,8.00
2019-03-19T19:41:34.720Z,8.00
2019-03-19T19:44:04.078Z,8.00
2019-03-19T19:46:33.427Z,8.00
2019-03-19T19:49:03.142Z,7.90
2019-03-19T19:51:32.656Z,7.80
2019-03-19T19:54:03.091Z,7.70
2019-03-19T19:56:32.429Z,7.70
2019-03-19T19:59:01.884Z,7.60
2019-03-19T20:01:34.161Z,7.50
2019-03-19T20:04:10.353Z,7.50
2019-03-19T20:06:39.595Z,7.50
2019-03-19T20:09:09.597Z,7.50
2019-03-19T20:11:40.108Z,7.60
2019-03-19T20:14:09.406Z,7.60
2019-03-19T20:16:40.193Z,7.60
2019-03-19T20:19:09.648Z,7.70
2019-03-19T20:21:38.919Z,7.70
2019-03-19T20:24:08.195Z,7.70
2019-03-19T20:26:37.450Z,7.50
2019-03-19T20:29:06.808Z,7.30
2019-03-19T20:31:36.162Z,7.00
2019-03-19T20:34:05.404Z,6.70
2019-03-19T20:36:35.120Z,6.50
2019-03-19T20:39:06.534Z,6.40
2019-03-19T20:41:38.675Z,6.40
2019-03-19T20:44:12.414Z,6.30
2019-03-19T20:46:42.791Z,6.40
2019-03-19T20:49:12.014Z,6.40
2019-03-19T20:51:41.217Z,6.50
2019-03-19T20:54:16.318Z,6.50
2019-03-19T20:56:45.582Z,6.50
2019-03-19T20:59:15.995Z,6.50
2019-03-19T21:01:45.475Z,6.60
2019-03-19T21:04:14.593Z,6.50
2019-03-19T21:06:43.815Z,6.50
2019-03-19T21:09:13.118Z,6.30
2019-03-19T21:11:42.388Z,6.20
2019-03-19T21:14:13.762Z,6.20
2019-03-19T21:16:43.109Z,6.20
2019-03-19T21:19:14.594Z,6.20
2019-03-19T21:21:44.420Z,6.20
2019-03-19T21:24:13.814Z,6.30
2019-03-19T21:26:42.934Z,6.30
2019-03-19T21:29:12.176Z,6.20
2019-03-19T21:31:44.624Z,6.10
2019-03-19T21:34:17.369Z,6.10
2019-03-19T21:36:46.993Z,6.10
2019-03-19T21:39:16.270Z,6.10
2019-03-19T21:41:48.611Z,6.00
2019-03-19T21:44:20.991Z,6.10
2019-03-19T21:46:52.705Z,5.90
2019-03-19T21:49:23.023Z,5.50
2019-03-19T21:51:52.180Z,5.40
2019-03-19T21:54:21.820Z,5.30
2019-03-19T21:56:51.094Z,5.40
2019-03-19T21:59:20.393Z,5.20
2019-03-19T22:01:49.584Z,5.20
2019-03-19T22:04:18.870Z,5.10
2019-03-19T22:06:49.690Z,5.00
2019-03-19T22:09:18.834Z,5.00
2019-03-19T22:11:48.112Z,4.90
2019-03-19T22:14:17.342Z,4.90
2019-03-19T22:16:46.677Z,4.90
2019-03-19T22:19:16.001Z,4.90
2019-03-19T22:21:45.308Z,4.90
2019-03-19T22:24:14.556Z,4.80
2019-03-19T22:26:45.162Z,4.80
2019-03-19T22:29:14.374Z,4.70
2019-03-19T22:31:43.590Z,4.60
2019-03-19T22:34:14.246Z,4.50
2019-03-19T22:36:44.177Z,4.30
2019-03-19T22:39:13.429Z,4.40
2019-03-19T22:41:42.667Z,4.40
2019-03-19T22:44:11.897Z,4.30
2019-03-19T22:46:41.191Z,4.30
2019-03-19T22:49:10.547Z,4.20
2019-03-19T22:51:39.805Z,4.10
2019-03-19T22:54:09.424Z,4.10
2019-03-19T22:56:38.675Z,4.00
2019-03-19T22:59:07.795Z,3.90
2019-03-19T23:01:37.013Z,4.00
2019-03-19T23:04:06.293Z,4.00
2019-03-19T23:06:35.507Z,4.10
2019-03-19T23:09:06.715Z,4.10
2019-03-19T23:11:35.921Z,4.10
2019-03-19T23:14:05.162Z,4.10
2019-03-19T23:16:34.292Z,4.10
2019-03-19T23:19:03.454Z,4.10
2019-03-19T23:21:32.772Z,4.20
2019-03-19T23:24:02.029Z,4.20
2019-03-19T23:26:31.183Z,4.20
2019-03-19T23:29:00.529Z,4.20
2019-03-19T23:31:29.713Z,4.20
2019-03-19T23:33:58.852Z,4.20
2019-03-19T23:36:28.127Z,4.10
2019-03-19T23:38:57.267Z,4.10
2019-03-19T23:41:26.468Z,4.10
2019-03-19T23:43:55.730Z,4.00
2019-03-19T23:46:25.589Z,4.00
2019-03-19T23:48:54.979Z,3.90
2019-03-19T23:51:24.431Z,3.90
2019-03-19T23:53:53.607Z,3.80
2019-03-19T23:56:22.956Z,3.70
2019-03-19T23:58:52.280Z,3.60
